Time;durP1;ratioP1;P1;durP2;ratioP2;P2;SDS_P1;SDS_P2;PMS_P1;PMS_P2;Temp;Humidity;BMP_temperature;BMP_pressure;BME280_temperature;BME280_humidity;BME280_pressure;Samples;Min_cycle;Max_cycle;Signal;HPM_P1;HPM_P2
2023/01/28 00:01:49;;;;;;;19.85;18.00;;;;;;;3.13;80.08;102789.69;5074326;28;20443;-58
2023/01/28 00:04:14;;;;;;;19.52;17.73;;;;;;;3.13;80.02;102787.06;5084885;28;20106;-59
2023/01/28 00:06:40;;;;;;;19.25;17.42;;;;;;;3.03;80.60;102781.78;5085026;28;20060;-58
2023/01/28 00:09:06;;;;;;;18.80;17.20;;;;;;;3.07;80.25;102778.31;5073936;28;20400;-58
2023/01/28 00:11:32;;;;;;;18.15;16.45;;;;;;;3.15;80.46;102785.31;5073859;28;20020;-58
2023/01/28 00:13:58;;;;;;;18.88;17.27;;;;;;;3.21;81.84;102794.03;5054838;28;20028;-58
2023/01/28 00:16:25;;;;;;;17.83;16.23;;;;;;;3.17;80.95;102796.69;5084861;28;20064;-58
2023/01/28 00:18:51;;;;;;;17.55;16.05;;;;;;;3.21;81.37;102796.69;5093942;28;20049;-58
2023/01/28 00:21:17;;;;;;;18.88;17.20;;;;;;;3.28;81.66;102796.69;5095859;28;20488;-58
2023/01/28 00:23:46;;;;;;;19.27;17.58;;;;;;;3.18;82.03;102808.09;5077313;28;20032;-58
2023/01/28 00:26:13;;;;;;;19.23;17.50;;;;;;;3.14;81.56;102801.94;5096189;28;20024;-58
2023/01/28 00:28:40;;;;;;;18.77;17.08;;;;;;;3.10;82.12;102800.19;5080278;28;20065;-58
2023/01/28 00:31:08;;;;;;;19.17;17.38;;;;;;;3.09;81.79;102806.34;5092319;28;20031;-58
2023/01/28 00:33:34;;;;;;;17.88;16.30;;;;;;;3.01;82.15;102788.81;5093380;28;20043;-58
2023/01/28 00:36:03;;;;;;;18.75;17.05;;;;;;;3.17;82.37;102806.31;5093619;28;20027;-58
2023/01/28 00:38:28;;;;;;;18.25;16.55;;;;;;;3.19;81.56;102810.72;5094445;28;20476;-58
2023/01/28 00:40:54;;;;;;;19.23;17.35;;;;;;;3.19;81.18;102821.22;5091177;28;20031;-58
2023/01/28 00:43:20;;;;;;;20.23;18.35;;;;;;;3.13;80.75;102809.84;5092194;28;20030;-58
2023/01/28 00:45:45;;;;;;;19.88;18.08;;;;;;;3.12;81.65;102816.88;5092100;28;20074;-58
2023/01/28 00:48:11;;;;;;;20.35;18.45;;;;;;;3.16;80.99;102817.72;5078360;28;20073;-58
2023/01/28 00:50:38;;;;;;;20.60;18.70;;;;;;;3.10;81.81;102815.09;5091990;28;20020;-58
2023/01/28 00:53:03;;;;;;;19.52;17.60;;;;;;;3.02;82.01;102807.22;5093193;28;20024;-58
2023/01/28 00:55:29;;;;;;;19.38;17.50;;;;;;;3.01;81.53;102817.75;5087046;28;20016;-58
2023/01/28 00:57:54;;;;;;;17.95;16.17;;;;;;;2.99;80.61;102817.72;5085487;28;20442;-58
2023/01/28 01:00:24;;;;;;;19.58;17.70;;;;;;;2.96;81.08;102815.09;5094627;28;20020;-58
2023/01/28 01:02:50;;;;;;;19.80;17.90;;;;;;;2.78;80.46;102788.81;5093237;28;20024;-58
2023/01/28 01:05:16;;;;;;;19.77;17.88;;;;;;;2.98;80.38;102823.88;5094980;28;20028;-58
2023/01/28 01:07:41;;;;;;;19.52;17.70;;;;;;;2.98;80.38;102828.25;5094352;28;20507;-58
2023/01/28 01:10:11;;;;;;;19.00;17.20;;;;;;;3.01;80.08;102828.25;5092770;28;20028;-58
2023/01/28 01:12:39;;;;;;;19.42;17.52;;;;;;;3.02;79.59;102822.09;5092784;28;20104;-58
2023/01/28 01:15:09;;;;;;;19.38;17.48;;;;;;;2.98;79.96;102817.75;5079287;28;20031;-59
2023/01/28 01:17:38;;;;;;;19.15;17.40;;;;;;;3.07;79.91;102823.88;5072601;28;20124;-58
2023/01/28 01:20:05;;;;;;;18.90;17.20;;;;;;;2.95;80.48;102808.97;5054533;28;20032;-58
2023/01/28 01:22:35;;;;;;;18.83;16.95;;;;;;;2.95;80.80;102815.97;5072518;28;20024;-58
2023/01/28 01:25:01;;;;;;;20.67;18.67;;;;;;;2.92;80.93;102792.34;5083251;28;20032;-58
2023/01/28 01:27:29;;;;;;;18.77;17.08;;;;;;;3.06;80.91;102819.50;5094673;28;20491;-58
2023/01/28 01:29:54;;;;;;;18.98;17.27;;;;;;;3.06;80.42;102818.59;5092088;28;20062;-58
2023/01/28 01:32:21;;;;;;;19.50;17.70;;;;;;;2.94;80.40;102807.22;5102753;28;20028;-58
2023/01/28 01:34:47;;;;;;;18.33;16.63;;;;;;;3.04;80.82;102815.09;5057668;28;20031;-58
2023/01/28 01:37:12;;;;;;;19.50;17.67;;;;;;;2.98;79.51;102818.59;5092184;28;20012;-58
2023/01/28 01:39:37;;;;;;;19.13;17.42;;;;;;;2.93;78.72;102807.22;5090988;28;20016;-58
2023/01/28 01:42:03;;;;;;;19.58;17.80;;;;;;;3.00;78.95;102816.88;5092426;28;20027;-58
2023/01/28 01:44:56;;;;;;;20.20;18.30;;;;;;;3.03;79.34;102818.59;5090504;28;20016;-58
2023/01/28 01:47:40;;;;;;;19.33;17.52;;;;;;;3.02;79.56;102822.97;5090943;28;20020;-58
2023/01/28 01:50:31;;;;;;;19.30;17.58;;;;;;;3.07;80.57;102820.38;5085051;28;20384;-58
2023/01/28 01:53:01;;;;;;;20.38;18.48;;;;;;;2.98;79.63;102823.00;5092412;28;20028;-58
2023/01/28 01:55:30;;;;;;;20.00;18.17;;;;;;;2.87;78.49;102821.22;5080538;28;20499;-58
2023/01/28 01:57:59;;;;;;;20.02;18.10;;;;;;;2.86;78.50;102829.13;5078801;28;20384;-58
2023/01/28 02:00:24;;;;;;;19.83;18.00;;;;;;;2.81;78.70;102818.59;5083779;28;20020;-58
2023/01/28 02:02:51;;;;;;;20.13;18.20;;;;;;;2.86;79.32;102816.84;5084894;28;20028;-58
2023/01/28 02:05:19;;;;;;;21.40;19.38;;;;;;;2.87;79.71;102823.84;5081958;28;20032;-58
2023/01/28 02:07:47;;;;;;;21.20;19.10;;;;;;;2.86;79.62;102829.13;5071753;28;20024;-58
2023/01/28 02:10:13;;;;;;;20.75;18.95;;;;;;;2.75;79.82;102808.06;5071724;28;20031;-58
2023/01/28 02:12:54;;;;;;;19.85;18.05;;;;;;;2.83;79.16;102821.25;5071539;28;20020;-57
2023/01/28 02:15:23;;;;;;;21.60;19.60;;;;;;;2.84;77.95;102831.72;5087321;28;20085;-57
2023/01/28 02:17:49;;;;;;;20.63;18.63;;;;;;;2.75;79.08;102844.84;5090577;28;20027;-58
2023/01/28 02:20:23;;;;;;;21.70;19.67;;;;;;;2.75;80.26;102828.22;5090636;28;20016;-58
2023/01/28 02:23:13;;;;;;;20.88;18.88;;;;;;;2.74;79.78;102835.22;5081728;28;20112;-58
2023/01/28 02:25:50;;;;;;;;;;;;;;;2.84;79.79;102836.97;5071947;28;20028;-58
2023/01/28 02:28:37;;;;;;;20.63;18.63;;;;;;;2.79;79.23;102822.97;5081682;28;19920;-58
2023/01/28 02:31:20;;;;;;;21.02;19.02;;;;;;;2.85;78.62;102825.59;5091791;28;20388;-58
2023/01/28 02:33:53;;;;;;;19.35;17.50;;;;;;;2.91;78.60;102823.00;5091388;28;20499;-58
2023/01/28 02:36:47;;;;;;;20.73;18.67;;;;;;;2.90;79.12;102823.84;5091930;28;20034;-58
2023/01/28 02:39:20;;;;;;;19.65;17.83;;;;;;;2.86;79.01;102816.84;5076656;28;20020;-58
2023/01/28 02:41:52;;;;;;;19.85;17.90;;;;;;;2.81;78.52;102818.59;5077148;28;20036;-58
2023/01/28 02:44:18;;;;;;;18.80;17.10;;;;;;;2.83;78.94;102824.72;5077068;28;20026;-58
2023/01/28 02:49:29;;;;;;;20.38;18.48;;;;;;;2.72;77.86;102822.09;5096645;28;20333;-58
2023/01/28 02:53:39;;;;;;;21.45;19.45;;;;;;;2.75;78.02;102828.22;5097571;28;20073;-57
2023/01/28 02:55:12;;;;;;;20.92;18.88;;;;;;;2.77;78.88;102832.63;5097364;28;20558;-58
2023/01/28 02:57:51;;;;;;;20.52;18.63;;;;;;;2.75;78.04;102838.72;5104363;28;20027;-58
2023/01/28 03:00:24;;;;;;;19.88;18.08;;;;;;;2.62;79.53;102835.22;5095114;28;20545;-58
2023/01/28 03:03:07;;;;;;;20.25;18.35;;;;;;;2.61;79.54;102831.69;5095072;28;20101;-58
2023/01/28 03:05:57;;;;;;;19.58;17.77;;;;;;;2.55;79.46;102839.56;5095167;28;20028;-58
2023/01/28 03:39:00;;;;;;;18.15;16.48;;;;;;;2.44;77.58;102850.06;5074700;28;20043;-58
2023/01/28 03:41:26;;;;;;;18.63;16.83;;;;;;;2.40;76.91;102845.66;5083799;28;20064;-58
2023/01/28 03:43:52;;;;;;;17.88;16.27;;;;;;;2.41;76.72;102850.03;5092763;28;20031;-58
2023/01/28 03:46:18;;;;;;;17.73;16.10;;;;;;;2.35;76.63;102842.13;5093276;28;20077;-57
2023/01/28 03:48:44;;;;;;;17.60;16.00;;;;;;;2.46;76.20;102848.28;5075428;28;20028;-58
2023/01/28 03:51:10;;;;;;;17.15;15.60;;;;;;;2.55;76.27;102843.94;5074285;28;20081;-57
2023/01/28 03:53:35;;;;;;;16.25;14.85;;;;;;;2.58;76.68;102847.44;5083245;28;20028;-58
2023/01/28 03:56:00;;;;;;;17.05;15.35;;;;;;;2.52;76.28;102842.19;5099537;28;20091;-58
2023/01/28 03:58:45;;;;;;;17.10;15.50;;;;;;;2.54;75.81;102836.94;5093880;28;20103;-57
2023/01/28 04:01:12;;;;;;;16.63;15.13;;;;;;;2.53;76.57;102850.94;5079257;28;20447;-58
2023/01/28 04:03:38;;;;;;;16.80;15.30;;;;;;;2.46;76.85;102843.03;5095691;28;20409;-58
2023/01/28 04:06:08;;;;;;;16.92;15.43;;;;;;;2.44;77.48;102855.31;5094063;28;20148;-58
2023/01/28 04:08:34;;;;;;;;;;;;;;;2.58;77.17;102857.94;5092934;28;20107;-58
2023/01/28 04:11:14;;;;;;;17.73;16.10;;;;;;;2.42;77.66;102856.16;5094146;28;20046;-57
2023/01/28 04:13:40;;;;;;;18.17;16.63;;;;;;;2.48;78.46;102859.69;5093385;28;20065;-58
2023/01/28 04:16:07;;;;;;;17.23;15.73;;;;;;;2.40;79.19;102861.41;5075814;28;20123;-57
2023/01/28 04:18:32;;;;;;;18.75;17.15;;;;;;;2.39;79.89;102858.78;5075656;28;20016;-58
2023/01/28 04:20:57;;;;;;;19.67;17.88;;;;;;;2.38;79.96;102867.50;5092685;28;20055;-57
2023/01/28 04:23:23;;;;;;;19.60;17.85;;;;;;;2.37;81.32;102864.00;5092418;28;20028;-58
2023/01/28 04:25:50;;;;;;;19.38;17.63;;;;;;;2.31;81.15;102860.50;5076735;28;20032;-58
2023/01/28 04:28:15;;;;;;;20.10;18.30;;;;;;;2.34;81.06;102863.13;5094938;28;20377;-58
2023/01/28 04:30:41;;;;;;;19.38;17.67;;;;;;;2.38;81.58;102860.53;5093725;28;20073;-58
2023/01/28 04:33:08;;;;;;;20.08;18.27;;;;;;;2.28;82.45;102864.84;5093513;28;20107;-58
2023/01/28 04:35:34;;;;;;;20.58;18.58;;;;;;;2.22;82.20;102862.22;5083200;28;20025;-58
2023/01/28 04:37:59;;;;;;;21.08;19.17;;;;;;;2.19;81.63;102862.19;5072601;28;20594;-58
2023/01/28 04:40:24;;;;;;;20.60;18.70;;;;;;;2.20;82.10;102866.56;5063255;28;20015;-58
2023/01/28 04:42:54;;;;;;;21.58;19.48;;;;;;;2.23;82.43;102855.22;5092999;28;20103;-58
2023/01/28 04:45:21;;;;;;;21.13;19.13;;;;;;;2.33;82.13;102859.63;5093242;28;20023;-58
2023/01/28 04:47:46;;;;;;;19.73;17.92;;;;;;;2.29;81.91;102852.59;5096418;28;20024;-58
2023/01/28 04:50:11;;;;;;;20.65;18.73;;;;;;;2.31;80.85;102850.00;5093177;28;20099;-58
2023/01/28 04:52:37;;;;;;;20.48;18.58;;;;;;;2.35;81.33;102857.88;5093089;28;20031;-58
2023/01/28 04:55:03;;;;;;;20.33;18.42;;;;;;;2.36;81.50;102864.91;5092303;28;20095;-58
2023/01/28 04:57:30;;;;;;;21.45;19.52;;;;;;;2.30;81.64;102862.25;5074145;28;20035;-58
2023/01/28 04:59:56;;;;;;;20.95;18.98;;;;;;;2.31;82.17;102861.38;5088104;28;20016;-58
2023/01/28 05:02:21;;;;;;;21.08;19.15;;;;;;;2.28;82.12;102856.97;5077681;28;20020;-58
2023/01/28 05:04:47;;;;;;;20.52;18.63;;;;;;;2.33;82.11;102861.41;5092952;28;20036;-57
2023/01/28 05:07:12;;;;;;;20.00;18.08;;;;;;;2.28;82.50;102867.47;5092871;28;20413;-58
2023/01/28 05:09:40;;;;;;;20.77;18.90;;;;;;;2.23;82.25;102870.97;5091558;28;20027;-58
2023/01/28 05:12:06;;;;;;;20.25;18.38;;;;;;;2.25;82.49;102870.09;5088793;28;20468;-58
2023/01/28 05:14:31;;;;;;;21.50;19.50;;;;;;;2.24;83.22;102872.72;5076774;28;20118;-58
2023/01/28 05:16:56;;;;;;;22.23;20.02;;;;;;;2.19;82.47;102866.56;5092892;28;20396;-58
2023/01/28 05:19:24;;;;;;;21.85;19.77;;;;;;;2.19;83.06;102871.81;5092706;28;20023;-58
2023/01/28 05:21:50;;;;;;;21.13;19.08;;;;;;;2.19;82.50;102879.69;5090502;28;20031;-58
2023/01/28 05:24:15;;;;;;;21.30;19.20;;;;;;;2.10;82.79;102877.03;5065428;28;20024;-58
2023/01/28 05:26:41;;;;;;;21.15;18.90;;;;;;;2.04;82.33;102881.38;5093640;28;20065;-58
2023/01/28 05:29:07;;;;;;;22.52;20.27;;;;;;;2.06;83.45;102876.16;5095948;28;20020;-58
2023/01/28 05:31:33;;;;;;;22.77;20.58;;;;;;;2.01;82.89;102870.00;5095724;28;20077;-58
2023/01/28 05:33:58;;;;;;;22.00;19.90;;;;;;;2.08;83.73;102868.28;5087899;28;20024;-58
2023/01/28 05:36:24;;;;;;;21.67;19.48;;;;;;;2.03;83.36;102853.38;5092332;28;20540;-58
2023/01/28 05:38:49;;;;;;;22.52;20.42;;;;;;;2.06;83.13;102860.41;5073949;28;20024;-58
2023/01/28 05:41:15;;;;;;;22.90;20.70;;;;;;;2.05;82.93;102859.50;5092270;28;20100;-58
2023/01/28 05:43:40;;;;;;;22.67;20.58;;;;;;;2.05;83.53;102867.38;5091531;28;20027;-58
2023/01/28 05:46:06;;;;;;;22.08;19.98;;;;;;;2.04;83.69;102865.63;5090457;28;20111;-58
2023/01/28 05:48:31;;;;;;;21.48;19.48;;;;;;;2.05;82.86;102866.50;5101493;28;20024;-58
2023/01/28 05:50:56;;;;;;;22.45;20.35;;;;;;;2.04;83.21;102868.25;5092151;28;20024;-58
2023/01/28 05:53:22;;;;;;;20.55;18.63;;;;;;;2.04;81.87;102863.00;5087998;28;20462;-58
2023/01/28 05:55:49;;;;;;;21.05;19.15;;;;;;;2.03;82.04;102863.03;5093774;28;20179;-58
2023/01/28 05:58:15;;;;;;;20.60;18.70;;;;;;;2.01;81.82;102872.63;5097221;28;20024;-58
2023/01/28 06:00:40;;;;;;;19.95;18.13;;;;;;;2.03;81.52;102876.13;5081323;28;20353;-58
2023/01/28 06:03:06;;;;;;;19.88;17.98;;;;;;;2.10;80.82;102875.28;5075823;28;20020;-58
2023/01/28 06:05:31;;;;;;;18.38;16.58;;;;;;;2.01;80.20;102867.38;5091802;28;20027;-58
2023/01/28 06:07:59;;;;;;;19.85;18.05;;;;;;;2.01;80.31;102877.88;5094093;28;20028;-58
2023/01/28 06:10:24;;;;;;;17.02;15.35;;;;;;;1.95;77.97;102876.09;5091946;28;20035;-58
2023/01/28 06:12:49;;;;;;;17.90;16.30;;;;;;;1.97;78.17;102886.56;5091439;28;20023;-58
2023/01/28 06:15:15;;;;;;;17.43;15.97;;;;;;;1.97;76.66;102886.56;5089960;28;20024;-57
2023/01/28 06:17:40;;;;;;;16.48;15.02;;;;;;;1.99;76.63;102887.47;5096422;28;20048;-58
2023/01/28 06:20:07;;;;;;;17.15;15.65;;;;;;;2.01;76.80;102889.22;5087119;28;20469;-58
2023/01/28 06:22:33;;;;;;;17.42;15.93;;;;;;;2.08;76.55;102890.13;5074757;28;20016;-58
2023/01/28 06:24:58;;;;;;;17.20;15.70;;;;;;;2.09;77.35;102885.75;5090799;28;20030;-58
2023/01/28 06:27:24;;;;;;;18.30;16.60;;;;;;;1.95;74.83;102886.59;5091225;28;20164;-58
2023/01/28 06:29:49;;;;;;;16.95;15.45;;;;;;;1.96;73.85;102888.31;5072500;28;20130;-58
2023/01/28 06:32:17;;;;;;;16.63;15.23;;;;;;;2.01;73.74;102897.09;5090855;28;20032;-58
2023/01/28 06:34:42;;;;;;;16.10;14.70;;;;;;;2.02;72.95;102893.59;5092630;28;20464;-58
2023/01/28 06:37:08;;;;;;;16.92;15.32;;;;;;;2.02;73.50;102893.59;5091855;28;20024;-58
2023/01/28 06:39:36;;;;;;;17.60;16.02;;;;;;;2.06;73.46;102894.53;5091540;28;20141;-57
2023/01/28 06:42:02;;;;;;;18.27;16.67;;;;;;;2.02;72.75;102895.34;5091319;28;20123;-58
2023/01/28 06:44:27;;;;;;;17.67;16.08;;;;;;;2.02;73.26;102900.59;5093455;28;20145;-58
2023/01/28 06:46:53;;;;;;;17.58;15.98;;;;;;;2.02;73.17;102904.09;5091051;28;20028;-58
2023/01/28 06:49:19;;;;;;;18.30;16.60;;;;;;;1.99;72.58;102904.09;5091217;28;20024;-58
2023/01/28 06:51:44;;;;;;;18.25;16.55;;;;;;;2.05;72.62;102912.00;5091539;28;20494;-58
2023/01/28 06:54:10;;;;;;;18.63;16.98;;;;;;;2.07;73.84;102903.28;5091508;28;20023;-57
2023/01/28 06:56:35;;;;;;;16.80;15.30;;;;;;;2.00;72.66;102897.09;5074028;28;20028;-58
2023/01/28 06:59:00;;;;;;;17.70;16.13;;;;;;;2.07;73.45;102909.38;5075942;28;20472;-58
2023/01/28 07:01:26;;;;;;;18.55;16.80;;;;;;;2.00;74.53;102898.00;5081477;28;20054;-58
2023/01/28 07:03:51;;;;;;;18.43;16.73;;;;;;;2.03;73.04;102903.25;5090981;28;20059;-58
2023/01/28 07:06:17;;;;;;;17.85;16.25;;;;;;;2.02;73.33;102900.59;5091454;28;20111;-57
2023/01/28 07:08:42;;;;;;;18.40;16.70;;;;;;;2.05;73.42;102912.00;5091175;28;20095;-58
2023/01/28 07:11:07;;;;;;;18.52;16.83;;;;;;;2.01;72.73;102911.97;5073633;28;20036;-58
2023/01/28 07:13:33;;;;;;;18.95;17.15;;;;;;;2.10;72.79;102919.91;5090941;28;20060;-58
2023/01/28 07:16:02;;;;;;;20.00;18.10;;;;;;;2.07;72.84;102911.13;5073152;28;20036;-58
2023/01/28 07:18:27;;;;;;;20.42;18.50;;;;;;;2.08;73.12;102911.13;5091283;28;20096;-58
2023/01/28 07:20:55;;;;;;;19.60;17.70;;;;;;;2.03;72.08;102924.25;5073150;28;20036;-58
2023/01/28 07:23:21;;;;;;;18.55;16.83;;;;;;;2.07;72.44;102924.25;5073594;28;20040;-58
2023/01/28 07:25:46;;;;;;;20.08;18.17;;;;;;;2.08;73.17;102931.25;5076650;28;20035;-58
2023/01/28 07:28:12;;;;;;;19.48;17.58;;;;;;;2.05;73.27;102930.34;5094596;28;20042;-58
2023/01/28 07:30:37;;;;;;;20.00;18.02;;;;;;;2.03;73.21;102931.25;5094757;28;20457;-58
2023/01/28 07:33:03;;;;;;;19.85;17.92;;;;;;;2.14;73.37;102936.53;5094758;28;20464;-57
2023/01/28 07:35:31;;;;;;;19.63;17.60;;;;;;;2.08;73.57;102933.88;5094732;28;20384;-58
2023/01/28 07:37:59;;;;;;;21.30;19.30;;;;;;;2.10;74.37;102935.66;5094775;28;20024;-57
2023/01/28 07:40:28;;;;;;;20.40;18.52;;;;;;;2.01;72.88;102941.72;5076529;28;20035;-58
2023/01/28 07:42:55;;;;;;;18.77;16.75;;;;;;;1.83;72.84;102928.50;5076011;28;20043;-58
2023/01/28 07:45:21;;;;;;;20.05;18.15;;;;;;;1.84;72.23;102935.47;5094448;28;20396;-58
2023/01/28 07:47:58;;;;;;;18.77;16.98;;;;;;;1.87;72.86;102935.50;5094209;28;20019;-57
2023/01/28 07:50:24;;;;;;;20.60;18.70;;;;;;;1.88;71.95;102945.13;5076123;28;20028;-58
2023/01/28 07:52:50;;;;;;;20.58;18.58;;;;;;;1.86;72.08;102939.00;5094247;28;20032;-60
2023/01/28 07:55:15;;;;;;;20.67;18.77;;;;;;;1.92;73.18;102952.16;5094465;28;20028;-58
2023/01/28 07:58:07;;;;;;;20.50;18.42;;;;;;;2.02;72.78;102960.97;5076219;28;20030;-58
2023/01/28 08:00:35;;;;;;;20.55;18.58;;;;;;;1.99;72.77;102959.19;5088877;28;20127;-58
2023/01/28 08:03:03;;;;;;;21.02;19.05;;;;;;;1.92;73.44;102952.16;5094128;28;20085;-58
2023/01/28 08:05:40;;;;;;;20.75;18.77;;;;;;;1.95;71.90;102960.06;5094133;28;20035;-58
2023/01/28 08:08:08;;;;;;;20.15;18.30;;;;;;;1.95;72.93;102954.81;5076063;28;20031;-58
2023/01/28 08:10:34;;;;;;;21.23;19.15;;;;;;;1.90;72.63;102958.25;5094069;28;20048;-58
2023/01/28 08:12:59;;;;;;;21.98;19.80;;;;;;;1.95;72.71;102946.94;5075168;28;20058;-58
2023/01/28 08:15:25;;;;;;;20.25;18.25;;;;;;;1.86;71.99;102962.63;5093662;28;20036;-57
2023/01/28 08:17:53;;;;;;;19.98;18.13;;;;;;;1.81;71.92;102970.44;5093916;28;20027;-58
2023/01/28 08:20:18;;;;;;;20.55;18.55;;;;;;;1.79;72.79;102973.91;5075843;28;20040;-58
2023/01/28 08:22:44;;;;;;;21.67;19.58;;;;;;;1.81;71.88;102972.19;5075646;28;20122;-58
2023/01/28 08:25:09;;;;;;;20.92;18.92;;;;;;;1.90;71.89;102977.50;5093698;28;20020;-57
2023/01/28 08:27:35;;;;;;;20.20;18.10;;;;;;;1.95;70.49;102991.53;5093773;28;20027;-58
2023/01/28 08:30:00;;;;;;;20.85;18.88;;;;;;;1.96;70.70;102997.66;5074857;28;20085;-57
2023/01/28 08:32:28;;;;;;;20.73;18.73;;;;;;;1.88;70.92;102973.09;5059096;28;20024;-57
2023/01/28 08:34:53;;;;;;;20.45;18.45;;;;;;;2.05;70.87;102992.47;5075257;28;20024;-58
2023/01/28 08:37:18;;;;;;;21.27;19.27;;;;;;;2.05;71.43;102990.72;5093451;28;20393;-57
2023/01/28 08:39:44;;;;;;;21.30;19.30;;;;;;;2.07;70.97;102982.00;5075144;28;20111;-57
2023/01/28 08:42:10;;;;;;;20.63;18.63;;;;;;;2.10;70.92;102979.41;5075224;28;20491;-57
2023/01/28 08:44:35;;;;;;;22.27;20.15;;;;;;;2.21;71.13;103001.34;5092479;28;20059;-57
2023/01/28 08:47:00;;;;;;;20.08;18.17;;;;;;;2.14;70.47;102994.28;5093235;28;20031;-58
2023/01/28 08:49:26;;;;;;;20.45;18.45;;;;;;;2.28;70.71;103004.00;5075233;28;20463;-57
2023/01/28 08:51:51;;;;;;;21.08;19.17;;;;;;;2.33;70.38;103000.53;5075021;28;20020;-57
2023/01/28 08:54:17;;;;;;;21.15;19.08;;;;;;;2.34;69.92;103004.91;5074979;28;20024;-57
2023/01/28 08:56:43;;;;;;;22.15;19.98;;;;;;;2.34;69.76;103003.16;5093215;28;20045;-57
2023/01/28 08:59:10;;;;;;;21.52;19.52;;;;;;;2.29;69.76;103002.25;5092489;28;20042;-58
2023/01/28 09:01:35;;;;;;;21.70;19.73;;;;;;;2.37;69.83;103020.69;5074805;28;20035;-57
2023/01/28 09:04:01;;;;;;;20.50;18.50;;;;;;;2.33;70.70;103019.81;5074833;28;20023;-57
2023/01/28 09:06:27;;;;;;;20.50;18.60;;;;;;;2.31;70.61;103023.28;5075039;28;20391;-57
2023/01/28 09:08:56;;;;;;;21.40;19.20;;;;;;;2.30;70.99;103014.53;5092930;28;20020;-57
2023/01/28 09:11:21;;;;;;;21.48;19.48;;;;;;;2.31;70.89;103012.78;5092828;28;20024;-57
2023/01/28 09:13:49;;;;;;;21.27;19.27;;;;;;;2.35;70.97;103020.66;5092354;28;20135;-57
2023/01/28 09:16:14;;;;;;;21.25;19.27;;;;;;;2.35;70.25;103025.91;5074433;28;20063;-57
2023/01/28 09:18:40;;;;;;;21.58;19.48;;;;;;;2.39;70.29;103019.84;5074502;28;20429;-57
2023/01/28 09:21:06;;;;;;;21.02;19.02;;;;;;;2.31;70.90;103020.66;5092748;28;20448;-57
2023/01/28 09:23:36;;;;;;;21.90;19.70;;;;;;;2.37;71.17;103029.44;5092655;28;20365;-57
2023/01/28 09:26:03;;;;;;;21.30;19.27;;;;;;;2.37;71.54;103034.69;5092397;28;20024;-57
2023/01/28 09:28:31;;;;;;;21.63;19.63;;;;;;;2.33;70.36;103025.06;5073899;28;20054;-58
2023/01/28 09:31:04;;;;;;;21.30;19.30;;;;;;;2.24;70.39;103011.88;5092604;28;20027;-57
2023/01/28 09:33:33;;;;;;;22.77;20.67;;;;;;;2.25;71.95;103032.88;5074325;28;20035;-57
2023/01/28 09:36:00;;;;;;;22.88;20.80;;;;;;;2.24;70.87;103040.75;5092869;28;20024;-57
2023/01/28 09:38:25;;;;;;;23.48;21.15;;;;;;;2.18;71.52;103035.47;5092578;28;20111;-58
2023/01/28 09:40:55;;;;;;;24.05;21.80;;;;;;;2.08;71.45;103047.59;5092279;28;20546;-57
2023/01/28 09:43:44;;;;;;;23.87;21.67;;;;;;;2.09;71.63;103035.34;5091632;28;20111;-57
2023/01/28 09:46:13;;;;;;;23.05;20.90;;;;;;;2.01;71.71;103049.31;5073386;28;20294;-57
2023/01/28 09:48:46;;;;;;;23.55;21.40;;;;;;;2.01;72.78;103051.06;5074007;28;20012;-57
2023/01/28 09:51:36;;;;;;;22.50;20.42;;;;;;;2.04;72.59;103032.72;5091923;28;20396;-57
2023/01/28 09:54:11;;;;;;;24.85;22.55;;;;;;;1.94;72.07;103025.63;5092073;28;20028;-57
2023/01/28 09:56:42;;;;;;;23.55;21.45;;;;;;;1.98;72.88;103033.53;5073729;28;20027;-57
2023/01/28 09:59:18;;;;;;;23.17;21.08;;;;;;;1.95;71.98;103051.03;5091682;28;20110;-57
2023/01/28 10:01:52;;;;;;;23.77;21.73;;;;;;;1.88;72.79;103052.69;5073660;28;20088;-57
2023/01/28 10:04:35;;;;;;;24.48;22.27;;;;;;;1.99;72.63;103044.91;5091959;28;20107;-57
2023/01/28 10:07:29;;;;;;;22.90;20.77;;;;;;;2.05;72.62;103053.72;5092059;28;20111;-57
2023/01/28 10:10:00;;;;;;;22.05;20.00;;;;;;;2.06;72.61;103065.13;5091278;28;20040;-57
2023/01/28 10:12:50;;;;;;;23.75;21.55;;;;;;;2.12;72.89;103061.63;5091936;28;20047;-57
2023/01/28 10:15:26;;;;;;;23.10;20.90;;;;;;;2.11;72.35;103058.13;5073581;28;20473;-57
2023/01/28 10:18:00;;;;;;;21.92;20.02;;;;;;;1.98;72.09;103062.41;5091830;28;20051;-57
2023/01/28 10:20:34;;;;;;;21.17;19.27;;;;;;;1.96;71.84;103074.63;5091885;28;20080;-57
2023/01/28 10:23:26;;;;;;;21.30;19.48;;;;;;;2.00;72.69;103071.19;5073495;28;20028;-57
2023/01/28 10:25:56;;;;;;;21.67;19.77;;;;;;;1.88;72.40;103078.06;5091467;28;20034;-57
2023/01/28 10:28:27;;;;;;;23.20;21.17;;;;;;;1.83;72.16;103080.66;5090479;28;20051;-57
2023/01/28 10:30:53;;;;;;;22.15;20.15;;;;;;;1.95;71.87;103079.88;5091653;28;20396;-57
2023/01/28 10:33:21;;;;;;;20.80;18.88;;;;;;;1.98;71.54;103069.41;5091682;28;20020;-57
2023/01/28 10:35:47;;;;;;;20.75;18.73;;;;;;;1.96;71.66;103061.50;5091740;28;20020;-57
2023/01/28 10:38:22;;;;;;;20.58;18.77;;;;;;;2.00;72.04;103057.16;5073597;28;20387;-57
2023/01/28 10:40:49;;;;;;;21.05;19.15;;;;;;;1.94;71.27;103064.97;5089538;28;20031;-57
2023/01/28 10:43:25;;;;;;;21.20;19.30;;;;;;;1.85;71.44;103052.66;5063051;28;20036;-57
2023/01/28 10:45:57;;;;;;;21.40;19.40;;;;;;;1.91;71.61;103062.34;5090687;28;20073;-57
2023/01/28 10:48:25;;;;;;;19.02;17.33;;;;;;;1.96;71.29;103065.88;5073771;28;20467;-57
2023/01/28 10:50:52;;;;;;;19.85;18.05;;;;;;;2.04;71.97;103062.47;5071023;28;20047;-57
2023/01/28 10:53:18;;;;;;;19.73;17.67;;;;;;;2.02;71.86;103050.19;5071129;28;20047;-57
2023/01/28 10:55:53;;;;;;;19.70;17.95;;;;;;;2.00;71.26;103054.53;5052864;28;20055;-57
2023/01/28 10:58:25;;;;;;;19.10;17.40;;;;;;;2.05;71.19;103050.22;5072891;28;20052;-57
2023/01/28 11:00:54;;;;;;;18.95;17.23;;;;;;;2.07;72.35;103047.63;5087089;28;20016;-57
2023/01/28 11:03:21;;;;;;;19.58;17.77;;;;;;;2.04;71.48;103058.97;5095304;28;20537;-57
2023/01/28 11:05:55;;;;;;;20.43;18.63;;;;;;;2.02;72.02;103066.81;5077063;28;20031;-57
2023/01/28 11:08:23;;;;;;;17.95;16.33;;;;;;;2.15;71.58;103066.94;5095218;28;20508;-57
2023/01/28 11:10:50;;;;;;;19.15;17.35;;;;;;;2.14;71.10;103066.03;5076690;28;20395;-57
2023/01/28 11:13:24;;;;;;;20.77;18.88;;;;;;;2.13;71.47;103058.16;5094657;28;20089;-57
2023/01/28 11:16:15;;;;;;;21.80;19.65;;;;;;;1.98;72.37;103041.41;5095007;28;20072;-57
2023/01/28 11:18:51;;;;;;;20.17;18.25;;;;;;;2.09;72.28;103056.34;5094870;28;20058;-57
2023/01/28 11:21:28;;;;;;;20.88;18.98;;;;;;;2.05;72.29;103039.72;5095163;28;20408;-57
2023/01/28 11:24:13;;;;;;;19.83;18.02;;;;;;;2.12;72.15;103041.53;5076473;28;20516;-57
2023/01/28 11:26:44;;;;;;;20.45;18.55;;;;;;;2.13;72.35;103037.16;5094977;28;20032;-57
2023/01/28 11:29:31;;;;;;;20.75;18.75;;;;;;;2.24;73.22;103043.38;5094445;28;20039;-58
2023/01/28 11:31:58;;;;;;;20.70;18.80;;;;;;;2.25;72.32;103037.25;5095002;28;20492;-57
2023/01/28 11:34:29;;;;;;;20.83;18.90;;;;;;;2.17;72.07;103023.19;5094973;28;20099;-57
2023/01/28 11:37:15;;;;;;;21.33;19.33;;;;;;;2.17;72.32;103018.81;5060447;28;20500;-58
2023/01/28 11:39:40;;;;;;;20.48;18.58;;;;;;;2.19;71.82;103018.81;5094356;28;20036;-57
2023/01/28 11:42:18;;;;;;;20.52;18.52;;;;;;;2.25;71.45;103018.88;5094509;28;20032;-57
2023/01/28 11:44:45;;;;;;;21.35;19.38;;;;;;;2.24;71.01;103017.13;5093979;28;20028;-57
2023/01/28 11:47:38;;;;;;;20.00;18.20;;;;;;;2.35;71.38;103018.03;5094581;28;20034;-57
2023/01/28 11:50:34;;;;;;;20.80;18.80;;;;;;;2.32;71.39;103009.28;5076041;28;20043;-57
2023/01/28 11:53:24;;;;;;;20.35;18.55;;;;;;;2.32;70.97;102994.38;5093639;28;20040;-57
2023/01/28 11:55:53;;;;;;;20.75;18.67;;;;;;;2.30;71.58;102990.91;5076186;28;20172;-57
2023/01/28 11:59:01;;;;;;;20.38;18.48;;;;;;;2.29;72.03;102989.13;5093776;28;20488;-57
2023/01/28 12:01:56;;;;;;;20.73;18.73;;;;;;;2.41;72.03;102962.97;4995693;28;20029;-58